メインページ
METAR-TAF:

METAR-TAF

空港 :

グアム国際空港

ハガニア, グアム, アメリカ合衆国

緯度: 13-29N, 経度: 144-48E, 海抜: 91m

現時点の気象観測

当レポートは23分前の10:54(UTC)に作成
北/北東の風 7kt
気温 28°C
湿度 89%
気圧 1011 hPa
視程: 16.1km
晴天

METAR: PGUM 141054Z 02007KT 10SM CLR 28/26 A2985 RMK AO2 SLP101 T02780256

時間: 21:17 (11:17 UTC)

予報

当レポートは5時間44分前の05:33(UTC)に作成
予報は14日の 06時(UTC)から 15日の 12時(UTC)まで有効
北東の風 15kt
視程: 10km
高度2400ftの雲はほとんどない
高度3000ftの雲は散在している
14日の 0800時(UTC)から
北東の風 9kt
視程: 10km
高度2000ftの雲は散在している
高度5000ftの雲は散在している
近辺でにわか雨
15日の 0100時(UTC)から
北東の風 15kt
視程: 10km
高度2400ftの雲は散在している
近辺でにわか雨

TAF: PGUM 140533Z 1406/1512 04015KT P6SM FEW024 SCT030 FM140800 04009KT P6SM VCSH SCT020 SCT050 FM150100 05015KT P6SM VCSH SCT024

4,000以上の空港の気象観測と天気予報(METAR報とTAF報)

利用可能な観測所は地図上に黄色い丸と赤い丸で示す。

丸の上にカーソルを重ねると観測所名を参照できる。

次にクリックすると気象観測と天気予報を参照できる。

マップの切り替え:黒色「×」印の緑ボタンをクリックして拡大、「-」印の緑ボタンをクリックして縮小、緑色の三角印をクリックして隣りの地図に切り替え


METAR-TAF: